Time;durP1;ratioP1;P1;durP2;ratioP2;P2;SDS_P1;SDS_P2;PMS_P1;PMS_P2;Temp;Humidity;BMP_temperature;BMP_pressure;BME280_temperature;BME280_humidity;BME280_pressure;Samples;Min_cycle;Max_cycle;Signal;HPM_P1;HPM_P2
2023/02/24 00:01:51;;;;;;;;;;;;;;;18.35;70.15;100312.85;2253414;79;50747;-72
2023/02/24 00:04:53;;;;;;;;;;;;;;;18.34;70.20;100310.69;2252967;79;50133;-73
2023/02/24 00:07:54;;;;;;;;;;;;;;;18.32;70.23;100299.33;2228271;79;51489;-74
2023/02/24 00:10:56;;;;;;;;;;;;;;;18.32;70.36;100300.67;2203748;79;52341;-73
2023/02/24 00:13:58;;;;;;;;;;;;;;;18.30;70.48;100296.00;2248803;79;51539;-74
2023/02/24 00:17:00;;;;;;;;;;;;;;;18.26;70.62;100293.38;2254773;78;50728;-74
2023/02/24 00:20:04;;;;;;;;;;;;;;;18.25;70.54;100293.89;2253593;79;51485;-74
2023/02/24 00:23:05;;;;;;;;;;;;;;;18.27;70.43;100295.05;2233415;78;22716;-74
2023/02/24 00:26:07;;;;;;;;;;;;;;;18.29;70.39;100297.03;2235307;78;50394;-74
2023/02/24 00:29:09;;;;;;;;;;;;;;;18.29;70.38;100295.70;2190707;80;51378;-74
2023/02/24 00:32:13;;;;;;;;;;;;;;;18.29;70.50;100293.02;2180830;81;50780;-75
2023/02/24 00:35:15;;;;;;;;;;;;;;;18.27;70.51;100283.00;2156772;81;52313;-73
2023/02/24 00:38:17;;;;;;;;;;;;;;;18.26;70.59;100286.67;2179641;81;50776;-73
2023/02/24 00:41:21;;;;;;;;;;;;;;;18.25;70.83;100279.67;2180346;81;50435;-73
2023/02/24 00:44:23;;;;;;;;;;;;;;;18.20;70.91;100271.37;2196723;79;22359;-73
2023/02/24 00:47:24;;;;;;;;;;;;;;;18.19;70.75;100265.20;2205828;78;49577;-73
2023/02/24 00:50:26;;;;;;;;;;;;;;;18.14;70.87;100271.63;2228734;79;50344;-72
2023/02/24 00:53:28;;;;;;;;;;;;;;;18.12;71.16;100270.16;2253436;79;51538;-73
2023/02/24 00:56:30;;;;;;;;;;;;;;;18.19;70.76;100271.08;2253479;79;51537;-73
2023/02/24 00:59:31;;;;;;;;;;;;;;;18.25;70.52;100271.64;2228115;79;50624;-74
2023/02/24 01:02:33;;;;;;;;;;;;;;;18.27;70.41;100270.43;2228284;79;51564;-73
2023/02/24 01:05:35;;;;;;;;;;;;;;;18.27;70.41;100264.25;2253516;79;51601;-73
2023/02/24 01:08:41;;;;;;;;;;;;;;;18.25;70.52;100267.63;2253042;79;50755;-73
2023/02/24 01:15:03;;;;;;;;;;;;;;;18.25;70.45;100263.09;2224553;78;22590;-74
2023/02/24 01:18:02;;;;;;;;;;;;;;;18.24;70.60;100258.77;2252201;79;22240;-73
2023/02/24 01:21:04;;;;;;;;;;;;;;;18.22;70.40;100262.66;2228292;79;50726;-74
2023/02/24 01:24:06;;;;;;;;;;;;;;;18.17;70.51;100257.03;2203876;79;51207;-74
2023/02/24 01:27:08;;;;;;;;;;;;;;;18.13;71.03;100257.08;2197770;79;50435;-74
2023/02/24 01:30:14;;;;;;;;;;;;;;;18.15;70.76;100259.06;2228335;79;51520;-73
2023/02/24 01:33:16;;;;;;;;;;;;;;;18.22;70.49;100257.30;2228814;79;51478;-72
2023/02/24 01:36:18;;;;;;;;;;;;;;;18.26;70.27;100259.90;2203924;79;51032;-73
2023/02/24 01:39:19;;;;;;;;;;;;;;;18.27;70.23;100259.72;2253120;79;50760;-74
2023/02/24 01:42:22;;;;;;;;;;;;;;;18.27;70.24;100258.38;2253249;79;50405;-74
2023/02/24 01:45:24;;;;;;;;;;;;;;;18.28;70.25;100255.19;2253333;78;51416;-73
2023/02/24 01:48:26;;;;;;;;;;;;;;;18.23;70.35;100252.25;2203876;78;52444;-72
2023/02/24 01:51:28;;;;;;;;;;;;;;;18.25;70.40;100249.70;2253264;79;50700;-72
2023/02/24 01:54:34;;;;;;;;;;;;;;;18.23;70.45;100246.89;2253420;79;51467;-72
2023/02/24 01:57:37;;;;;;;;;;;;;;;18.19;70.57;100235.74;2217155;79;51433;-73
2023/02/24 02:00:44;;;;;;;;;;;;;;;18.14;70.95;100236.00;2233577;78;51168;-73
2023/02/24 02:03:42;;;;;;;;;;;;;;;18.14;71.01;100238.16;2256831;77;22224;-73
2023/02/24 02:06:44;;;;;;;;;;;;;;;18.18;70.59;100234.58;2254511;78;50429;-75
2023/02/24 02:09:46;;;;;;;;;;;;;;;18.19;70.60;100231.73;2253880;79;51477;-75
2023/02/24 02:12:50;;;;;;;;;;;;;;;18.21;70.62;100233.71;2228866;79;51066;-74
2023/02/24 02:15:55;;;;;;;;;;;;;;;18.22;70.43;100233.20;2254343;78;22477;-74
2023/02/24 02:19:02;;;;;;;;;;;;;;;18.22;70.51;100238.03;2253867;79;50436;-74
2023/02/24 02:22:05;;;;;;;;;;;;;;;18.20;70.55;100235.23;2254062;79;51584;-75
2023/02/24 02:25:11;;;;;;;;;;;;;;;18.17;70.65;100229.74;2221463;79;52566;-73
2023/02/24 02:28:18;;;;;;;;;;;;;;;18.19;70.60;100229.56;2253443;78;50420;-73
2023/02/24 02:31:24;;;;;;;;;;;;;;;18.17;70.50;100227.06;2252979;78;51503;-74
2023/02/24 02:34:44;;;;;;;;;;;;;;;18.18;70.77;100218.52;2240226;79;22330;-73
2023/02/24 02:37:52;;;;;;;;;;;;;;;18.15;70.98;100225.08;2240186;78;22272;-74
2023/02/24 02:40:58;;;;;;;;;;;;;;;18.16;70.66;100222.74;2239921;79;50694;-74
2023/02/24 02:44:02;;;;;;;;;;;;;;;18.18;70.69;100215.84;2239753;79;51589;-74
2023/02/24 02:47:05;;;;;;;;;;;;;;;18.19;70.59;100217.52;2238828;79;50717;-74
2023/02/24 02:50:08;;;;;;;;;;;;;;;18.17;70.61;100215.53;2216260;79;52312;-73
2023/02/24 02:53:11;;;;;;;;;;;;;;;18.17;70.73;100217.70;2240333;79;51447;-74
2023/02/24 02:56:17;;;;;;;;;;;;;;;18.15;70.84;100217.56;2234285;78;50301;-73
2023/02/24 02:59:21;;;;;;;;;;;;;;;18.14;70.89;100216.74;2256130;79;50463;-73
2023/02/24 03:02:27;;;;;;;;;;;;;;;18.13;71.08;100219.59;2257361;79;22300;-73
2023/02/24 03:05:46;;;;;;;;;;;;;;;18.16;70.85;100221.89;2254043;78;22240;-73
2023/02/24 03:09:17;;;;;;;;;;;;;;;18.13;70.86;100220.94;2253964;79;50457;-73
2023/02/24 03:12:19;;;;;;;;;;;;;;;18.11;70.87;100214.45;2254126;79;50444;-73
2023/02/24 03:15:21;;;;;;;;;;;;;;;18.12;70.86;100216.61;2254162;79;51536;-73
2023/02/24 03:18:27;;;;;;;;;;;;;;;18.12;70.83;100223.30;2254359;79;50330;-72
2023/02/24 03:21:31;;;;;;;;;;;;;;;18.13;70.77;100211.56;2254310;78;22200;-73
2023/02/24 03:24:35;;;;;;;;;;;;;;;18.16;70.59;100209.84;2253831;78;22138;-73
2023/02/24 03:27:38;;;;;;;;;;;;;;;18.13;70.73;100211.56;2242804;78;22286;-73
2023/02/24 03:30:44;;;;;;;;;;;;;;;18.17;70.76;100204.82;2254019;78;50401;-73
2023/02/24 03:33:50;;;;;;;;;;;;;;;18.19;70.73;100200.11;2229265;79;50341;-73
2023/02/24 03:36:53;;;;;;;;;;;;;;;18.19;70.75;100195.58;2253393;78;51532;-74
2023/02/24 03:39:56;;;;;;;;;;;;;;;18.17;70.87;100190.92;2228811;79;51180;-74
2023/02/24 03:43:04;;;;;;;;;;;;;;;18.17;70.97;100194.11;2254148;79;51469;-73
2023/02/24 03:46:04;;;;;;;;;;;;;;;18.24;70.86;100184.30;2253963;79;22708;-74
2023/02/24 03:49:11;;;;;;;;;;;;;;;18.20;70.83;100185.69;2253983;79;50482;-72
2023/02/24 03:52:20;;;;;;;;;;;;;;;18.23;70.80;100181.28;2254098;79;22314;-72
2023/02/24 03:55:27;;;;;;;;;;;;;;;18.17;71.11;100178.87;2215769;78;51486;-73
2023/02/24 03:58:46;;;;;;;;;;;;;;;18.19;70.89;100171.99;2255117;79;51524;-73
2023/02/24 04:01:56;;;;;;;;;;;;;;;18.20;71.06;100168.28;2257042;79;50433;-73
2023/02/24 04:05:31;;;;;;;;;;;;;;;18.15;71.16;100165.35;2256783;78;22240;-73
2023/02/24 04:08:34;;;;;;;;;;;;;;;18.15;71.16;100158.66;2215618;79;51559;-73
2023/02/24 04:11:38;;;;;;;;;;;;;;;18.18;71.00;100163.63;2215913;78;51981;-73
2023/02/24 04:14:52;;;;;;;;;;;;;;;18.18;70.97;100155.59;2216220;80;51562;-73
2023/02/24 04:17:59;;;;;;;;;;;;;;;18.14;70.92;100151.14;2191846;80;52454;-74
2023/02/24 04:21:02;;;;;;;;;;;;;;;18.13;71.04;100153.48;2216100;80;50697;-74
2023/02/24 04:24:10;;;;;;;;;;;;;;;18.13;71.03;100142.77;2189318;80;51467;-73
2023/02/24 04:27:10;;;;;;;;;;;;;;;18.13;71.08;100137.94;2241866;79;22402;-74
2023/02/24 04:30:12;;;;;;;;;;;;;;;18.13;71.00;100139.27;2233717;78;51025;-73
2023/02/24 04:33:13;;;;;;;;;;;;;;;18.12;70.79;100135.77;2254146;78;51492;-73
2023/02/24 04:36:19;;;;;;;;;;;;;;;18.11;70.77;100130.59;2254231;79;50397;-75
2023/02/24 04:39:22;;;;;;;;;;;;;;;18.10;70.68;100127.61;2253981;79;50770;-74
2023/02/24 04:42:23;;;;;;;;;;;;;;;18.09;70.73;100127.31;2204998;79;51574;-74
2023/02/24 04:45:26;;;;;;;;;;;;;;;18.07;70.74;100127.48;2254286;79;50723;-74
2023/02/24 04:48:29;;;;;;;;;;;;;;;18.03;70.74;100117.69;2254096;79;51476;-74
2023/02/24 04:51:31;;;;;;;;;;;;;;;18.02;70.97;100120.03;2229165;79;50727;-74
2023/02/24 04:54:33;;;;;;;;;;;;;;;18.01;71.12;100118.38;2204431;79;49586;-74
2023/02/24 04:57:37;;;;;;;;;;;;;;;18.03;71.06;100113.67;2193388;79;51510;-74
2023/02/24 05:00:40;;;;;;;;;;;;;;;18.04;70.96;100104.61;2252837;79;51537;-74
2023/02/24 05:03:42;;;;;;;;;;;;;;;18.05;71.02;100105.43;2253703;79;51563;-74
2023/02/24 05:06:43;;;;;;;;;;;;;;;18.06;70.99;100102.57;2200223;79;50100;-74
2023/02/24 05:09:47;;;;;;;;;;;;;;;18.04;71.08;100100.59;2253777;79;51528;-74
2023/02/24 05:12:48;;;;;;;;;;;;;;;18.09;70.94;100096.52;2231523;78;22406;-76
2023/02/24 05:15:50;;;;;;;;;;;;;;;18.09;70.75;100087.97;2230773;79;51495;-74
2023/02/24 05:19:28;;;;;;;;;;;;;;;18.05;70.81;100089.37;2230720;79;52353;-74
2023/02/24 05:21:56;;;;;;;;;;;;;;;18.05;70.80;100082.67;2250618;79;22357;-74
2023/02/24 05:24:58;;;;;;;;;;;;;;;18.03;70.70;100082.88;2242401;78;51515;-75
2023/02/24 05:28:02;;;;;;;;;;;;;;;18.01;70.99;100084.92;2232466;78;51378;-74
2023/02/24 05:31:04;;;;;;;;;;;;;;;18.02;71.11;100077.20;2229349;79;22186;-74
2023/02/24 05:34:06;;;;;;;;;;;;;;;18.04;71.03;100073.82;2254132;79;50748;-73
2023/02/24 05:37:09;;;;;;;;;;;;;;;18.06;70.98;100077.14;2254174;79;49996;-74
2023/02/24 05:40:12;;;;;;;;;;;;;;;18.04;71.05;100074.34;2253933;79;51522;-72
2023/02/24 05:43:18;;;;;;;;;;;;;;;18.04;71.04;100061.77;2205070;79;49441;-73
2023/02/24 05:46:20;;;;;;;;;;;;;;;18.04;71.14;100064.97;2254270;79;50440;-73
2023/02/24 05:49:25;;;;;;;;;;;;;;;18.06;70.94;100060.25;2229423;79;50320;-73
2023/02/24 05:52:27;;;;;;;;;;;;;;;18.02;71.02;100049.09;2254227;79;50316;-73
2023/02/24 05:55:30;;;;;;;;;;;;;;;18.02;70.84;100050.94;2190562;78;49588;-73
2023/02/24 05:58:32;;;;;;;;;;;;;;;18.02;70.88;100050.94;2254763;79;50718;-74
2023/02/24 06:01:34;;;;;;;;;;;;;;;17.99;71.01;100044.13;2257061;79;52179;-73
2023/02/24 06:04:39;;;;;;;;;;;;;;;18.00;71.15;100043.09;2254478;78;50308;-72
2023/02/24 06:07:42;;;;;;;;;;;;;;;17.99;71.24;100046.80;2229411;79;49794;-71
2023/02/24 06:10:45;;;;;;;;;;;;;;;18.01;71.26;100040.75;2229743;79;50377;-72
2023/02/24 06:13:49;;;;;;;;;;;;;;;18.02;71.07;100038.38;2246734;78;22275;-71
2023/02/24 06:16:51;;;;;;;;;;;;;;;18.04;70.87;100031.50;2211404;78;50702;-71
2023/02/24 06:19:52;;;;;;;;;;;;;;;18.04;70.68;100022.13;2230165;79;51498;-71
2023/02/24 06:22:56;;;;;;;;;;;;;;;18.01;70.61;100032.72;2255651;79;50321;-72
2023/02/24 06:25:59;;;;;;;;;;;;;;;17.98;70.51;100025.08;2256158;79;22149;-72
2023/02/24 06:29:03;;;;;;;;;;;;;;;17.97;70.28;100020.73;2247338;78;50354;-71
2023/02/24 06:32:10;;;;;;;;;;;;;;;17.97;69.73;100019.39;2207128;79;51032;-71
2023/02/24 06:35:12;;;;;;;;;;;;;;;17.94;69.61;100017.11;2255125;78;50745;-71
2023/02/24 06:38:16;;;;;;;;;;;;;;;17.90;70.11;100017.17;2227898;79;51650;-71
2023/02/24 06:41:17;;;;;;;;;;;;;;;17.93;70.10;100015.95;2205049;80;51521;-73
2023/02/24 06:44:19;;;;;;;;;;;;;;;17.97;69.97;100007.34;2203894;80;50986;-71
2023/02/24 06:47:21;;;;;;;;;;;;;;;18.00;69.66;100011.48;2193037;80;50502;-71
2023/02/24 06:50:23;;;;;;;;;;;;;;;18.00;69.65;100004.28;2192806;80;51638;-69
2023/02/24 06:53:25;;;;;;;;;;;;;;;17.98;69.85;100002.33;2216645;80;51460;-69
2023/02/24 06:56:27;;;;;;;;;;;;;;;18.01;69.64;99997.92;2180046;80;50016;-69
2023/02/24 06:59:28;;;;;;;;;;;;;;;17.95;69.91;99997.34;2220211;79;51555;-70
2023/02/24 07:02:38;;;;;;;;;;;;;;;17.90;69.95;99990.41;2255563;79;51639;-70
2023/02/24 07:05:33;;;;;;;;;;;;;;;17.86;69.91;99983.80;2254110;77;22237;-70
2023/02/24 07:08:35;;;;;;;;;;;;;;;17.84;69.93;99973.80;2234905;79;50951;-71
2023/02/24 07:11:37;;;;;;;;;;;;;;;17.85;70.28;99988.83;2255008;79;50496;-71
2023/02/24 07:14:39;;;;;;;;;;;;;;;17.90;70.06;99981.04;2253677;79;51563;-72
2023/02/24 07:17:42;;;;;;;;;;;;;;;17.98;69.66;99976.91;2213375;79;51401;-72
2023/02/24 07:20:45;;;;;;;;;;;;;;;17.98;69.68;99976.91;2208865;78;52421;-71
2023/02/24 07:23:48;;;;;;;;;;;;;;;17.98;69.77;99974.23;2216782;80;50480;-71
2023/02/24 07:26:56;;;;;;;;;;;;;;;17.98;69.92;99971.55;2192958;80;50774;-71
2023/02/24 07:29:58;;;;;;;;;;;;;;;18.07;69.44;99964.18;2220148;79;50730;-71
2023/02/24 07:32:59;;;;;;;;;;;;;;;18.06;69.25;99970.05;2236731;78;51136;-71
2023/02/24 07:36:07;;;;;;;;;;;;;;;18.07;69.05;99958.83;2265696;78;50385;-71
2023/02/24 07:39:06;;;;;;;;;;;;;;;18.09;68.95;99954.63;2234499;78;22161;-72
2023/02/24 07:42:08;;;;;;;;;;;;;;;18.04;68.84;99948.00;2266956;78;23901;-72
2023/02/24 07:45:10;;;;;;;;;;;;;;;17.88;66.12;99944.78;2237729;78;51027;-72
2023/02/24 07:48:13;;;;;;;;;;;;;;;17.79;64.42;99938.73;2234734;78;50655;-72
2023/02/24 07:51:15;;;;;;;;;;;;;;;17.82;62.66;99931.68;2234511;78;51543;-72
2023/02/24 07:54:17;;;;;;;;;;;;;;;17.86;62.71;99930.80;2266704;78;51471;-72
2023/02/24 07:57:18;;;;;;;;;;;;;;;17.95;62.81;99923.73;2237363;78;52437;-73
2023/02/24 08:00:26;;;;;;;;;;;;;;;18.01;62.91;99912.78;2261192;78;51526;-73
2023/02/24 08:03:23;;;;;;;;;;;;;;;18.05;63.29;99912.16;2202478;78;22209;-74
2023/02/24 08:06:36;;;;;;;;;;;;;;;18.04;63.86;99907.02;2219961;79;50471;-73
2023/02/24 08:12:53;;;;;;;;;;;;;;;18.10;64.18;99890.67;2232454;79;22335;-74
2023/02/24 08:15:55;;;;;;;;;;;;;;;18.10;64.25;99882.64;2254240;79;22272;-73
2023/02/24 08:18:56;;;;;;;;;;;;;;;18.10;64.36;99880.78;2223051;79;22397;-74
2023/02/24 08:22:10;;;;;;;;;;;;;;;18.08;64.41;99868.62;2204473;79;49519;-73
2023/02/24 08:25:05;;;;;;;;;;;;;;;18.03;65.30;99862.52;2198628;79;22382;-73
2023/02/24 08:28:05;;;;;;;;;;;;;;;18.01;65.72;99858.72;2254283;79;22355;-73
2023/02/24 08:31:07;;;;;;;;;;;;;;;18.03;65.88;99858.50;2246200;79;50319;-74
2023/02/24 08:34:09;;;;;;;;;;;;;;;18.03;66.01;99844.64;2254013;79;50707;-73
2023/02/24 08:37:14;;;;;;;;;;;;;;;18.04;66.01;99848.13;2226205;78;51101;-73
2023/02/24 08:40:38;;;;;;;;;;;;;;;18.04;66.12;99840.92;2253815;77;22768;-74
2023/02/24 08:43:31;;;;;;;;;;;;;;;18.05;66.15;99838.55;2242384;78;22351;-72
2023/02/24 08:46:36;;;;;;;;;;;;;;;18.07;66.21;99833.00;2188440;80;51556;-72
2023/02/24 08:49:38;;;;;;;;;;;;;;;18.06;66.22;99822.81;2201855;79;22489;-73
2023/02/24 08:52:39;;;;;;;;;;;;;;;18.06;66.19;99829.50;2255147;78;22342;-73
2023/02/24 08:55:41;;;;;;;;;;;;;;;18.08;66.24;99825.80;2249207;79;50691;-73
2023/02/24 08:58:48;;;;;;;;;;;;;;;18.09;66.28;99818.09;2197311;80;50422;-73
2023/02/24 09:01:53;;;;;;;;;;;;;;;18.09;66.24;99812.73;2188012;79;22709;-74
2023/02/24 09:04:51;;;;;;;;;;;;;;;18.08;66.30;99802.52;2233995;78;22239;-73
2023/02/24 09:07:53;;;;;;;;;;;;;;;18.09;66.29;99798.83;2252271;79;51526;-73
2023/02/24 09:10:54;;;;;;;;;;;;;;;18.10;66.33;99791.62;2252793;79;50731;-74
2023/02/24 09:14:00;;;;;;;;;;;;;;;18.11;66.32;99786.57;2231704;78;52360;-73
2023/02/24 09:17:02;;;;;;;;;;;;;;;18.10;66.27;99789.77;2216962;78;22185;-73
2023/02/24 09:23:28;;;;;;;;;;;;;;;18.11;66.31;99771.35;2237532;79;22196;-73
2023/02/24 09:26:31;;;;;;;;;;;;;;;18.13;66.21;99767.13;2241354;77;22105;-74
2023/02/24 09:29:32;;;;;;;;;;;;;;;18.12;66.21;99768.98;2240663;79;22263;-74
2023/02/24 09:32:34;;;;;;;;;;;;;;;18.12;66.18;99760.95;2246038;79;51527;-73
2023/02/24 09:35:40;;;;;;;;;;;;;;;18.13;66.22;99756.41;2220851;78;51455;-72
2023/02/24 09:45:11;;;;;;;;;;;;;;;18.10;66.15;99746.93;2216797;80;22092;-71
2023/02/24 09:48:15;;;;;;;;;;;;;;;18.09;66.21;99745.81;2210392;80;51529;-73
2023/02/24 09:51:28;;;;;;;;;;;;;;;18.06;66.13;99734.47;2191724;80;51149;-72
2023/02/24 09:54:23;;;;;;;;;;;;;;;18.07;66.17;99737.97;2212995;80;22267;-73
2023/02/24 09:57:24;;;;;;;;;;;;;;;18.04;66.19;99728.48;2216202;80;22261;-72
2023/02/24 10:00:32;;;;;;;;;;;;;;;18.04;66.28;99723.66;2215956;80;50385;-70
2023/02/24 10:03:46;;;;;;;;;;;;;;;18.02;66.28;99725.19;2224142;79;23046;-75
2023/02/24 10:06:46;;;;;;;;;;;;;;;17.99;66.33;99713.55;2253101;77;22407;-73
2023/02/24 10:10:26;;;;;;;;;;;;;;;18.01;66.43;99699.98;2253336;79;51504;-74
2023/02/24 10:13:12;;;;;;;;;;;;;;;18.00;66.59;99707.16;2241732;77;22239;-74
2023/02/24 10:16:15;;;;;;;;;;;;;;;18.02;66.50;99694.92;2157064;81;49596;-73
2023/02/24 10:19:24;;;;;;;;;;;;;;;17.97;66.56;99699.53;2180497;81;51485;-73
2023/02/24 10:22:39;;;;;;;;;;;;;;;17.95;66.35;99693.55;2180621;81;51494;-73
2023/02/24 10:25:41;;;;;;;;;;;;;;;17.99;66.06;99693.47;2196273;80;22184;-74
2023/02/24 10:28:50;;;;;;;;;;;;;;;18.03;65.88;99689.37;2193125;80;49550;-74
2023/02/24 10:31:57;;;;;;;;;;;;;;;18.00;65.89;99680.39;2215416;80;22458;-75
2023/02/24 10:34:59;;;;;;;;;;;;;;;17.99;65.95;99673.92;2253290;79;50728;-75
2023/02/24 10:38:09;;;;;;;;;;;;;;;17.95;66.10;99666.79;2245499;78;50372;-75
2023/02/24 10:41:05;;;;;;;;;;;;;;;17.93;66.33;99662.67;2227474;78;22807;-76
2023/02/24 10:44:08;;;;;;;;;;;;;;;17.90;66.53;99658.55;2204233;79;50780;-76
2023/02/24 10:47:11;;;;;;;;;;;;;;;17.92;66.40;99649.80;2256675;78;51435;-77
2023/02/24 10:50:19;;;;;;;;;;;;;;;17.92;66.38;99645.79;2242080;79;50428;-78
2023/02/24 10:53:33;;;;;;;;;;;;;;;17.93;66.42;99638.58;2236512;78;52330;-78
2023/02/24 10:57:17;;;;;;;;;;;;;;;17.86;66.77;99633.23;2265830;77;22230;-77
2023/02/24 10:59:57;;;;;;;;;;;;;;;17.91;66.59;99633.45;2245104;76;22401;-78
2023/02/24 11:03:09;;;;;;;;;;;;;;;17.94;66.47;99621.52;2230009;79;22393;-76
2023/02/24 11:09:50;;;;;;;;;;;;;;;17.92;66.51;99614.20;2215921;80;22164;-76
2023/02/24 11:19:30;;;;;;;;;;;;;;;17.91;66.50;99612.04;2250411;78;22761;-75
2023/02/24 11:22:33;;;;;;;;;;;;;;;17.91;66.63;99613.90;2191063;80;51562;-75
2023/02/24 11:25:35;;;;;;;;;;;;;;;17.89;66.84;99591.34;2215171;80;51466;-77
2023/02/24 11:28:42;;;;;;;;;;;;;;;17.92;66.79;99594.94;2190800;79;50475;-76
2023/02/24 11:32:07;;;;;;;;;;;;;;;17.93;66.79;99589.92;2199805;79;50126;-76
2023/02/24 11:35:17;;;;;;;;;;;;;;;17.94;67.04;99589.40;2229310;78;22155;-78
2023/02/24 11:38:32;;;;;;;;;;;;;;;17.94;66.79;99587.54;2215840;80;50477;-76
2023/02/24 11:41:34;;;;;;;;;;;;;;;17.93;66.66;99575.69;2215404;80;53374;-77
2023/02/24 11:44:38;;;;;;;;;;;;;;;17.91;66.88;99569.22;2191307;80;50141;-77
2023/02/24 11:47:41;;;;;;;;;;;;;;;17.92;66.83;99560.15;2214369;79;50945;-75
2023/02/24 11:50:46;;;;;;;;;;;;;;;17.94;66.70;99555.42;2214537;79;50611;-76
2023/02/24 11:54:01;;;;;;;;;;;;;;;17.90;66.83;99548.00;2215320;80;50455;-75
2023/02/24 11:57:02;;;;;;;;;;;;;;;17.90;66.89;99542.13;2215452;80;51534;-75
2023/02/24 12:00:05;;;;;;;;;;;;;;;17.94;66.79;99542.04;2215121;80;51530;-75
2023/02/24 12:03:08;;;;;;;;;;;;;;;17.95;66.76;99532.16;2193437;80;50349;-76
2023/02/24 12:06:20;;;;;;;;;;;;;;;17.95;66.85;99530.30;2251801;78;50544;-76
2023/02/24 12:09:25;;;;;;;;;;;;;;;17.93;66.51;99528.36;2191442;80;51647;-77
2023/02/24 12:12:37;;;;;;;;;;;;;;;17.92;66.69;99518.67;2211337;80;50384;-76
2023/02/24 12:15:41;;;;;;;;;;;;;;;17.89;66.57;99509.72;2218110;80;50398;-76
2023/02/24 12:18:44;;;;;;;;;;;;;;;17.90;66.67;99500.65;2248185;79;51958;-77
2023/02/24 12:21:47;;;;;;;;;;;;;;;17.90;66.71;99498.49;2222545;79;50996;-76
2023/02/24 12:24:50;;;;;;;;;;;;;;;17.91;66.59;99488.12;2253150;77;51910;-77
2023/02/24 12:28:05;;;;;;;;;;;;;;;17.92;66.54;99482.54;2253694;79;51583;-76
2023/02/24 12:31:08;;;;;;;;;;;;;;;17.90;66.58;99472.55;2253548;78;51530;-76
2023/02/24 12:34:13;;;;;;;;;;;;;;;17.88;66.45;99479.98;2230878;79;52528;-76
2023/02/24 12:37:22;;;;;;;;;;;;;;;17.84;66.49;99466.70;2254051;79;50411;-77
2023/02/24 12:40:35;;;;;;;;;;;;;;;17.83;66.62;99467.22;2238636;78;51616;-78
2023/02/24 12:43:42;;;;;;;;;;;;;;;17.81;66.69;99464.44;2253783;78;50718;-75
2023/02/24 12:46:43;;;;;;;;;;;;;;;17.80;66.45;99457.42;2213942;79;51102;-75
2023/02/24 12:49:49;;;;;;;;;;;;;;;17.82;66.34;99450.84;2240215;78;50327;-76
2023/02/24 12:52:56;;;;;;;;;;;;;;;17.91;66.46;99446.11;2246450;79;51605;-76
2023/02/24 12:56:17;;;;;;;;;;;;;;;17.97;66.21;99439.92;2254269;78;51582;-75
2023/02/24 12:59:20;;;;;;;;;;;;;;;17.97;66.25;99431.89;2229049;79;51196;-76
2023/02/24 13:02:33;;;;;;;;;;;;;;;18.00;66.12;99429.31;2254500;79;51607;-76
2023/02/24 13:05:36;;;;;;;;;;;;;;;17.99;66.02;99415.11;2254522;79;51481;-76
2023/02/24 13:08:51;;;;;;;;;;;;;;;17.99;66.25;99410.28;2253798;79;50747;-77
2023/02/24 13:12:11;;;;;;;;;;;;;;;17.98;66.45;99405.45;2229199;79;51023;-76
2023/02/24 13:15:14;;;;;;;;;;;;;;;17.99;66.25;99387.53;2254938;79;51588;-76
2023/02/24 13:18:17;;;;;;;;;;;;;;;17.98;66.15;99372.00;2222572;78;51514;-76
2023/02/24 13:21:23;;;;;;;;;;;;;;;17.98;66.05;99372.00;2255562;77;51599;-77
2023/02/24 13:24:25;;;;;;;;;;;;;;;18.01;66.01;99369.42;2218343;79;49299;-76
2023/02/24 13:27:27;;;;;;;;;;;;;;;18.04;65.96;99364.45;2241548;79;51525;-73
2023/02/24 13:30:31;;;;;;;;;;;;;;;18.05;65.85;99359.39;2219228;80;50394;-75
2023/02/24 13:33:33;;;;;;;;;;;;;;;18.06;65.79;99353.03;2245775;79;50455;-75
2023/02/24 13:36:35;;;;;;;;;;;;;;;18.08;65.75;99350.64;2226725;79;51671;-75
2023/02/24 13:39:37;;;;;;;;;;;;;;;18.08;65.67;99357.33;2200815;79;51477;-76
2023/02/24 13:42:39;;;;;;;;;;;;;;;18.07;65.64;99339.12;2224897;79;50459;-75
2023/02/24 13:45:41;;;;;;;;;;;;;;;18.08;65.55;99331.37;2198508;80;50782;-75
2023/02/24 13:48:44;;;;;;;;;;;;;;;18.09;65.61;99333.05;2208379;79;51158;-75
2023/02/24 13:51:47;;;;;;;;;;;;;;;18.08;65.49;99327.89;2255676;79;50443;-75
2023/02/24 13:54:59;;;;;;;;;;;;;;;18.09;65.43;99328.21;2238289;79;50734;-74
2023/02/24 13:58:06;;;;;;;;;;;;;;;18.11;65.39;99323.45;2247426;78;51766;-74
2023/02/24 14:01:12;;;;;;;;;;;;;;;18.12;65.29;99317.08;2230506;78;51446;-74
2023/02/24 14:04:15;;;;;;;;;;;;;;;18.14;65.05;99315.02;2241688;78;50464;-74
2023/02/24 14:07:18;;;;;;;;;;;;;;;18.14;65.07;99308.32;2254758;79;51535;-74
2023/02/24 14:10:20;;;;;;;;;;;;;;;18.16;65.07;99306.23;2234977;79;51457;-75
2023/02/24 14:13:26;;;;;;;;;;;;;;;18.15;64.98;99299.25;2190077;80;51215;-76
2023/02/24 14:16:31;;;;;;;;;;;;;;;18.14;64.92;99291.73;2209778;79;22271;-74
2023/02/24 14:19:33;;;;;;;;;;;;;;;18.14;64.87;99294.41;2256164;79;50451;-77
2023/02/24 14:22:36;;;;;;;;;;;;;;;18.14;64.74;99282.89;2224922;79;50386;-75
2023/02/24 14:25:38;;;;;;;;;;;;;;;18.14;64.80;99284.23;2236979;78;50818;-76
2023/02/24 14:28:39;;;;;;;;;;;;;;;18.13;64.87;99290.08;2235946;78;50486;-76
2023/02/24 14:31:41;;;;;;;;;;;;;;;18.12;64.86;99280.41;2256380;79;50328;-74
2023/02/24 14:34:44;;;;;;;;;;;;;;;18.13;64.78;99274.53;2231244;78;49612;-75
2023/02/24 14:37:45;;;;;;;;;;;;;;;18.14;64.80;99260.14;2219280;79;50393;-76
2023/02/24 14:40:47;;;;;;;;;;;;;;;18.15;64.68;99261.24;2209767;79;50471;-75
2023/02/24 14:43:49;;;;;;;;;;;;;;;18.14;64.63;99260.14;2241255;79;50386;-75
2023/02/24 14:46:52;;;;;;;;;;;;;;;18.12;64.78;99258.19;2255337;79;51532;-75
2023/02/24 14:49:54;;;;;;;;;;;;;;;18.08;64.94;99256.95;2233806;79;50261;-74
2023/02/24 14:53:01;;;;;;;;;;;;;;;18.08;64.97;99252.94;2256826;79;50449;-73
2023/02/24 14:56:03;;;;;;;;;;;;;;;18.03;65.32;99237.52;2256738;78;51478;-74
2023/02/24 14:59:09;;;;;;;;;;;;;;;18.00;65.42;99240.10;2256701;79;50437;-75
2023/02/24 15:02:13;;;;;;;;;;;;;;;18.00;65.43;99237.95;2233526;79;51652;-74
2023/02/24 15:05:15;;;;;;;;;;;;;;;17.99;65.43;99227.77;2256299;78;51572;-74
2023/02/24 15:08:27;;;;;;;;;;;;;;;17.95;65.40;99226.54;2253882;78;51577;-76
2023/02/24 15:11:29;;;;;;;;;;;;;;;17.93;65.45;99224.63;2253927;79;53012;-74
2023/02/24 15:14:31;;;;;;;;;;;;;;;17.93;65.38;99215.25;2228714;79;49622;-74
2023/02/24 15:17:32;;;;;;;;;;;;;;;18.01;65.11;99213.66;2254107;79;51531;-76
2023/02/24 15:20:35;;;;;;;;;;;;;;;18.09;64.78;99203.75;2253958;79;50459;-75
2023/02/24 15:23:37;;;;;;;;;;;;;;;18.11;64.86;99204.33;2254115;79;51629;-73
2023/02/24 15:26:38;;;;;;;;;;;;;;;18.12;64.75;99193.94;2234213;79;51683;-73
2023/02/24 15:29:40;;;;;;;;;;;;;;;18.11;64.67;99185.09;2253898;79;50745;-73
2023/02/24 15:32:42;;;;;;;;;;;;;;;18.13;64.82;99183.00;2254128;79;50429;-73
2023/02/24 15:35:47;;;;;;;;;;;;;;;18.13;64.86;99173.62;2254138;79;50457;-73
2023/02/24 15:38:52;;;;;;;;;;;;;;;18.09;64.79;99174.30;2228734;79;51121;-72
2023/02/24 15:41:55;;;;;;;;;;;;;;;18.01;64.92;99166.83;2228773;79;50477;-73
2023/02/24 15:44:57;;;;;;;;;;;;;;;17.96;65.22;99163.97;2213493;79;50419;-72
2023/02/24 15:48:00;;;;;;;;;;;;;;;17.90;65.20;99155.97;2215060;80;51485;-72
2023/02/24 15:51:02;;;;;;;;;;;;;;;17.97;64.85;99152.75;2190890;80;52580;-73
2023/02/24 15:54:04;;;;;;;;;;;;;;;18.08;64.56;99149.37;2215230;80;50432;-72
2023/02/24 15:57:06;;;;;;;;;;;;;;;18.16;64.28;99144.27;2215154;80;51505;-72
2023/02/24 16:00:13;;;;;;;;;;;;;;;18.25;63.99;99138.97;2192941;80;51686;-73
2023/02/24 16:03:15;;;;;;;;;;;;;;;18.26;63.81;99136.08;2192405;80;51017;-73
2023/02/24 16:06:17;;;;;;;;;;;;;;;18.27;63.74;99132.87;2193310;80;51436;-73
2023/02/24 16:09:21;;;;;;;;;;;;;;;18.21;63.78;99123.02;2214895;80;51492;-73
2023/02/24 16:12:24;;;;;;;;;;;;;;;18.19;63.79;99120.58;2214800;80;50458;-72
2023/02/24 16:15:41;;;;;;;;;;;;;;;18.18;63.82;99119.45;2192837;80;52323;-73
2023/02/24 16:18:41;;;;;;;;;;;;;;;18.10;63.97;99113.03;2214765;79;22179;-73
2023/02/24 16:21:43;;;;;;;;;;;;;;;17.97;64.46;99113.41;2215224;80;50423;-74